Carmel, CA

11:17 AM PDT on March 31, 2015 (GMT -0700)
Taza - Country Club Drive | | Change Station
CLOSE
Current Station
Personal Weather Station
Location: Carmel Valley, CA
Elevation: 430 ft
Nearby Weather Stations

Elev 430 ft 36.49 °N, 121.74 °W | Updated 8 seconds ago

Clear
Clear
68.0 °F
Feels Like 68.0 °F
N
3.7
Wind Variable Wind from NW

Today
High -- | Low -- °F
--% Chance of Precip.
Yesterday
High -- | Low -- °F
Precip. -- in
6:54 AM 7:28 PM
Waxing Gibbous, 88% visible
Pressure 30.24 in
Visibility 10.0 miles
Clouds Clear
Dew Point 51 °F
Humidity 54%
Rainfall 0.00 in
Snow Depth Not available.
UV 6 out of 12
Pollen 9.00 out of 12
Air Quality Not available.
Flu Activity Not available.
METAR KMRY 311754Z 28008KT 10SM CLR 16/09 A3020 RMK AO2 SLP239 T01560094 10161 20111 51014

More Conditions Fewer Conditions

Pressure 30.24 in
Visibility 10.0 miles
Clouds Clear
Dew Point 51 °F
Humidity 54%
Rainfall 0.00 in
Snow Depth Not available.
UV 6 out of 12
Pollen 9.00 out of 12
Air Quality Not available.
Flu Activity Not available.
METAR KMRY 311754Z 28008KT 10SM CLR 16/09 A3020 RMK AO2 SLP239 T01560094 10161 20111 51014

More Conditions Fewer Conditions

10-Day Weather Forecast

Almanac

Astronomy

Mar. 31, 2015 Rise Set
Actual Time
Civil Twilight
Nautical Twilight
Astronomical Twilight
Moon
Length of Visible Light
Length of Day
Tomorrow will be .
, % of the Moon is Illuminated

Today's Extremes

State Highs State Lows

Community

WunderPhotos

Upload Photos

1,809,786 photos uploaded!

WunderBlogs® & News

Nearby

Air Quality

  Air Quality AQ Index Pollutant
Not available.

Snow Depth

Station Depth Elevation

Earthquake Activity

City Distance Mag. Time & Date
Minimum magnitude displayed is 2.5.

Coastal Water Temperatures

Place Temperature

Stations

Nearby Weather Stations

Station Location Temp. Windchill Dew Point Humidity Wind Precip. Elev Updated Type